sensor_id;sensor_type;location;lat;lon;timestamp;P1;durP1;ratioP1;P2;durP2;ratioP2
11473;SDS011;5793;52.238;13.438;2023-05-20T00:01:38;5.47;;;3.47;;
11473;SDS011;5793;52.238;13.438;2023-05-20T00:04:06;7.47;;;3.90;;
11473;SDS011;5793;52.238;13.438;2023-05-20T00:06:34;6.90;;;3.78;;
11473;SDS011;5793;52.238;13.438;2023-05-20T00:09:02;4.65;;;3.35;;
11473;SDS011;5793;52.238;13.438;2023-05-20T00:11:31;7.75;;;3.80;;
11473;SDS011;5793;52.238;13.438;2023-05-20T00:13:59;5.03;;;3.42;;
11473;SDS011;5793;52.238;13.438;2023-05-20T00:16:27;8.13;;;3.33;;
11473;SDS011;5793;52.238;13.438;2023-05-20T00:18:55;7.38;;;3.65;;
11473;SDS011;5793;52.238;13.438;2023-05-20T00:21:23;6.55;;;3.70;;
11473;SDS011;5793;52.238;13.438;2023-05-20T00:23:51;3.85;;;3.10;;
11473;SDS011;5793;52.238;13.438;2023-05-20T00:26:19;6.35;;;3.35;;
11473;SDS011;5793;52.238;13.438;2023-05-20T00:28:49;4.38;;;3.38;;
11473;SDS011;5793;52.238;13.438;2023-05-20T00:31:17;4.45;;;2.97;;
11473;SDS011;5793;52.238;13.438;2023-05-20T00:33:44;5.25;;;3.38;;
11473;SDS011;5793;52.238;13.438;2023-05-20T00:36:12;4.40;;;3.30;;
11473;SDS011;5793;52.238;13.438;2023-05-20T00:38:40;5.75;;;2.92;;
11473;SDS011;5793;52.238;13.438;2023-05-20T00:41:08;5.80;;;3.38;;
11473;SDS011;5793;52.238;13.438;2023-05-20T00:43:36;6.03;;;3.67;;
11473;SDS011;5793;52.238;13.438;2023-05-20T00:46:05;7.10;;;3.72;;
11473;SDS011;5793;52.238;13.438;2023-05-20T00:48:35;4.28;;;3.47;;
11473;SDS011;5793;52.238;13.438;2023-05-20T00:51:07;4.85;;;3.17;;
11473;SDS011;5793;52.238;13.438;2023-05-20T00:53:35;4.18;;;3.40;;
11473;SDS011;5793;52.238;13.438;2023-05-20T00:56:03;5.35;;;3.30;;
11473;SDS011;5793;52.238;13.438;2023-05-20T00:58:32;5.03;;;3.40;;
11473;SDS011;5793;52.238;13.438;2023-05-20T01:01:02;6.00;;;3.58;;
11473;SDS011;5793;52.238;13.438;2023-05-20T01:03:31;4.40;;;3.50;;
11473;SDS011;5793;52.238;13.438;2023-05-20T01:06:00;9.68;;;4.13;;
11473;SDS011;5793;52.238;13.438;2023-05-20T01:08:28;5.28;;;3.78;;
11473;SDS011;5793;52.238;13.438;2023-05-20T01:10:58;4.70;;;3.47;;
11473;SDS011;5793;52.238;13.438;2023-05-20T01:13:31;4.55;;;3.53;;
11473;SDS011;5793;52.238;13.438;2023-05-20T01:16:03;6.55;;;3.63;;
11473;SDS011;5793;52.238;13.438;2023-05-20T01:18:32;5.63;;;3.75;;
11473;SDS011;5793;52.238;13.438;2023-05-20T01:21:02;4.77;;;3.40;;
11473;SDS011;5793;52.238;13.438;2023-05-20T01:23:33;4.82;;;3.53;;
11473;SDS011;5793;52.238;13.438;2023-05-20T01:26:05;8.20;;;3.90;;
11473;SDS011;5793;52.238;13.438;2023-05-20T01:28:33;6.13;;;3.60;;
11473;SDS011;5793;52.238;13.438;2023-05-20T01:31:04;5.77;;;4.07;;
11473;SDS011;5793;52.238;13.438;2023-05-20T01:33:35;8.50;;;3.60;;
11473;SDS011;5793;52.238;13.438;2023-05-20T01:36:06;4.40;;;3.60;;
11473;SDS011;5793;52.238;13.438;2023-05-20T01:38:36;8.68;;;3.85;;
11473;SDS011;5793;52.238;13.438;2023-05-20T01:41:05;6.43;;;3.70;;
11473;SDS011;5793;52.238;13.438;2023-05-20T01:43:34;3.93;;;3.27;;
11473;SDS011;5793;52.238;13.438;2023-05-20T01:46:04;5.17;;;4.13;;
11473;SDS011;5793;52.238;13.438;2023-05-20T01:48:32;7.43;;;3.83;;
11473;SDS011;5793;52.238;13.438;2023-05-20T01:51:00;7.60;;;3.57;;
11473;SDS011;5793;52.238;13.438;2023-05-20T01:53:28;5.50;;;3.50;;
11473;SDS011;5793;52.238;13.438;2023-05-20T01:55:57;6.10;;;3.80;;
11473;SDS011;5793;52.238;13.438;2023-05-20T01:58:25;7.25;;;3.80;;
11473;SDS011;5793;52.238;13.438;2023-05-20T02:00:53;4.77;;;3.53;;
11473;SDS011;5793;52.238;13.438;2023-05-20T02:03:21;6.40;;;3.67;;
11473;SDS011;5793;52.238;13.438;2023-05-20T02:05:49;6.57;;;3.85;;
11473;SDS011;5793;52.238;13.438;2023-05-20T02:08:17;6.50;;;3.67;;
11473;SDS011;5793;52.238;13.438;2023-05-20T02:10:46;5.30;;;3.90;;
11473;SDS011;5793;52.238;13.438;2023-05-20T02:13:15;6.77;;;4.20;;
11473;SDS011;5793;52.238;13.438;2023-05-20T02:15:43;4.80;;;3.60;;
11473;SDS011;5793;52.238;13.438;2023-05-20T02:18:11;4.50;;;3.20;;
11473;SDS011;5793;52.238;13.438;2023-05-20T02:20:39;4.90;;;4.00;;
11473;SDS011;5793;52.238;13.438;2023-05-20T02:23:07;5.33;;;4.00;;
11473;SDS011;5793;52.238;13.438;2023-05-20T02:25:36;4.97;;;3.30;;
11473;SDS011;5793;52.238;13.438;2023-05-20T02:28:03;4.55;;;3.22;;
11473;SDS011;5793;52.238;13.438;2023-05-20T02:30:37;5.68;;;3.33;;
11473;SDS011;5793;52.238;13.438;2023-05-20T02:33:05;4.45;;;3.65;;
11473;SDS011;5793;52.238;13.438;2023-05-20T02:35:35;4.20;;;3.30;;
11473;SDS011;5793;52.238;13.438;2023-05-20T02:38:03;5.57;;;3.60;;
11473;SDS011;5793;52.238;13.438;2023-05-20T02:40:31;4.40;;;3.50;;
11473;SDS011;5793;52.238;13.438;2023-05-20T02:42:59;4.65;;;3.63;;
11473;SDS011;5793;52.238;13.438;2023-05-20T02:45:27;6.07;;;3.85;;
11473;SDS011;5793;52.238;13.438;2023-05-20T02:47:56;4.15;;;3.35;;
11473;SDS011;5793;52.238;13.438;2023-05-20T02:50:25;4.05;;;3.35;;
11473;SDS011;5793;52.238;13.438;2023-05-20T02:52:53;6.97;;;4.03;;
11473;SDS011;5793;52.238;13.438;2023-05-20T02:55:21;7.38;;;3.85;;
11473;SDS011;5793;52.238;13.438;2023-05-20T02:57:48;5.43;;;3.78;;
11473;SDS011;5793;52.238;13.438;2023-05-20T03:00:17;5.73;;;3.50;;
11473;SDS011;5793;52.238;13.438;2023-05-20T03:02:45;5.28;;;4.05;;
11473;SDS011;5793;52.238;13.438;2023-05-20T03:05:14;6.53;;;4.20;;
11473;SDS011;5793;52.238;13.438;2023-05-20T03:07:42;4.93;;;3.38;;
11473;SDS011;5793;52.238;13.438;2023-05-20T03:10:11;3.78;;;3.38;;
11473;SDS011;5793;52.238;13.438;2023-05-20T03:12:39;6.57;;;4.33;;
11473;SDS011;5793;52.238;13.438;2023-05-20T03:15:07;5.22;;;3.65;;
11473;SDS011;5793;52.238;13.438;2023-05-20T03:17:35;6.17;;;4.13;;
11473;SDS011;5793;52.238;13.438;2023-05-20T03:20:04;6.20;;;3.50;;
11473;SDS011;5793;52.238;13.438;2023-05-20T03:22:34;5.20;;;3.92;;
11473;SDS011;5793;52.238;13.438;2023-05-20T03:25:02;5.68;;;3.95;;
11473;SDS011;5793;52.238;13.438;2023-05-20T03:27:31;6.03;;;3.80;;
11473;SDS011;5793;52.238;13.438;2023-05-20T03:29:59;7.23;;;4.30;;
11473;SDS011;5793;52.238;13.438;2023-05-20T03:32:27;5.03;;;4.13;;
11473;SDS011;5793;52.238;13.438;2023-05-20T03:34:55;7.67;;;3.90;;
11473;SDS011;5793;52.238;13.438;2023-05-20T03:37:23;6.17;;;4.17;;
11473;SDS011;5793;52.238;13.438;2023-05-20T03:39:52;6.90;;;4.35;;
11473;SDS011;5793;52.238;13.438;2023-05-20T03:42:20;4.60;;;4.10;;
11473;SDS011;5793;52.238;13.438;2023-05-20T03:44:48;6.20;;;4.47;;
11473;SDS011;5793;52.238;13.438;2023-05-20T03:47:16;5.32;;;4.72;;
11473;SDS011;5793;52.238;13.438;2023-05-20T03:49:43;6.00;;;4.63;;
11473;SDS011;5793;52.238;13.438;2023-05-20T03:52:12;7.75;;;4.28;;
11473;SDS011;5793;52.238;13.438;2023-05-20T03:54:39;6.30;;;4.85;;
11473;SDS011;5793;52.238;13.438;2023-05-20T03:57:08;9.90;;;5.28;;
11473;SDS011;5793;52.238;13.438;2023-05-20T03:59:36;5.68;;;4.45;;
11473;SDS011;5793;52.238;13.438;2023-05-20T04:02:05;6.07;;;4.30;;
11473;SDS011;5793;52.238;13.438;2023-05-20T04:04:33;8.05;;;4.95;;
11473;SDS011;5793;52.238;13.438;2023-05-20T04:07:01;6.18;;;4.60;;
11473;SDS011;5793;52.238;13.438;2023-05-20T04:09:30;7.45;;;4.63;;
11473;SDS011;5793;52.238;13.438;2023-05-20T04:11:58;8.48;;;5.13;;
11473;SDS011;5793;52.238;13.438;2023-05-20T04:14:27;7.33;;;4.70;;
11473;SDS011;5793;52.238;13.438;2023-05-20T04:16:56;7.47;;;4.70;;
11473;SDS011;5793;52.238;13.438;2023-05-20T04:19:24;6.47;;;4.05;;
11473;SDS011;5793;52.238;13.438;2023-05-20T04:21:54;5.40;;;4.57;;
11473;SDS011;5793;52.238;13.438;2023-05-20T04:24:22;6.43;;;4.70;;
11473;SDS011;5793;52.238;13.438;2023-05-20T04:26:50;7.22;;;5.18;;
11473;SDS011;5793;52.238;13.438;2023-05-20T04:29:19;7.13;;;4.68;;
11473;SDS011;5793;52.238;13.438;2023-05-20T04:31:49;8.35;;;4.38;;
11473;SDS011;5793;52.238;13.438;2023-05-20T04:34:17;11.30;;;4.95;;
11473;SDS011;5793;52.238;13.438;2023-05-20T04:36:52;6.78;;;4.88;;
11473;SDS011;5793;52.238;13.438;2023-05-20T04:39:19;7.65;;;4.88;;
11473;SDS011;5793;52.238;13.438;2023-05-20T04:41:48;6.23;;;4.93;;
11473;SDS011;5793;52.238;13.438;2023-05-20T04:44:16;6.63;;;4.78;;
11473;SDS011;5793;52.238;13.438;2023-05-20T04:46:44;6.85;;;4.80;;
11473;SDS011;5793;52.238;13.438;2023-05-20T04:49:13;7.18;;;4.55;;
11473;SDS011;5793;52.238;13.438;2023-05-20T04:51:41;6.47;;;4.50;;
11473;SDS011;5793;52.238;13.438;2023-05-20T04:54:09;7.15;;;5.00;;
11473;SDS011;5793;52.238;13.438;2023-05-20T04:56:37;7.25;;;4.55;;
11473;SDS011;5793;52.238;13.438;2023-05-20T04:59:05;6.90;;;4.70;;
11473;SDS011;5793;52.238;13.438;2023-05-20T05:01:34;5.82;;;4.00;;
11473;SDS011;5793;52.238;13.438;2023-05-20T05:04:03;7.00;;;5.07;;
11473;SDS011;5793;52.238;13.438;2023-05-20T05:06:32;5.55;;;4.47;;
11473;SDS011;5793;52.238;13.438;2023-05-20T05:09:00;8.30;;;5.25;;
11473;SDS011;5793;52.238;13.438;2023-05-20T05:11:28;8.68;;;5.35;;
11473;SDS011;5793;52.238;13.438;2023-05-20T05:13:56;8.07;;;5.40;;
11473;SDS011;5793;52.238;13.438;2023-05-20T05:16:24;7.22;;;5.15;;
11473;SDS011;5793;52.238;13.438;2023-05-20T05:18:52;8.05;;;5.00;;
11473;SDS011;5793;52.238;13.438;2023-05-20T05:21:20;7.15;;;5.20;;
11473;SDS011;5793;52.238;13.438;2023-05-20T05:23:49;6.55;;;4.93;;
11473;SDS011;5793;52.238;13.438;2023-05-20T05:26:17;7.68;;;5.00;;
11473;SDS011;5793;52.238;13.438;2023-05-20T05:28:46;7.65;;;5.25;;
11473;SDS011;5793;52.238;13.438;2023-05-20T05:31:14;9.93;;;5.25;;
11473;SDS011;5793;52.238;13.438;2023-05-20T05:33:41;9.32;;;5.95;;
11473;SDS011;5793;52.238;13.438;2023-05-20T05:36:09;9.35;;;5.82;;
11473;SDS011;5793;52.238;13.438;2023-05-20T05:38:37;8.25;;;5.65;;
11473;SDS011;5793;52.238;13.438;2023-05-20T05:41:06;14.13;;;5.75;;
11473;SDS011;5793;52.238;13.438;2023-05-20T05:43:34;10.23;;;5.47;;
11473;SDS011;5793;52.238;13.438;2023-05-20T05:46:02;7.97;;;6.35;;
11473;SDS011;5793;52.238;13.438;2023-05-20T05:48:30;10.60;;;6.28;;
11473;SDS011;5793;52.238;13.438;2023-05-20T05:50:58;8.70;;;6.32;;
11473;SDS011;5793;52.238;13.438;2023-05-20T05:53:26;10.93;;;6.80;;
11473;SDS011;5793;52.238;13.438;2023-05-20T05:55:54;9.15;;;6.38;;
11473;SDS011;5793;52.238;13.438;2023-05-20T05:58:23;11.93;;;6.55;;
11473;SDS011;5793;52.238;13.438;2023-05-20T06:00:51;10.85;;;6.63;;
11473;SDS011;5793;52.238;13.438;2023-05-20T06:03:20;15.50;;;7.00;;
11473;SDS011;5793;52.238;13.438;2023-05-20T06:05:48;12.65;;;6.72;;
11473;SDS011;5793;52.238;13.438;2023-05-20T06:08:16;9.38;;;6.40;;
11473;SDS011;5793;52.238;13.438;2023-05-20T06:10:46;9.48;;;6.47;;
11473;SDS011;5793;52.238;13.438;2023-05-20T06:13:15;10.23;;;6.85;;
11473;SDS011;5793;52.238;13.438;2023-05-20T06:15:44;13.27;;;7.47;;
11473;SDS011;5793;52.238;13.438;2023-05-20T06:18:12;11.18;;;6.80;;
11473;SDS011;5793;52.238;13.438;2023-05-20T06:20:40;8.88;;;6.72;;
11473;SDS011;5793;52.238;13.438;2023-05-20T06:23:08;13.30;;;6.90;;
11473;SDS011;5793;52.238;13.438;2023-05-20T06:25:36;11.70;;;7.38;;
11473;SDS011;5793;52.238;13.438;2023-05-20T06:28:03;9.90;;;6.57;;
11473;SDS011;5793;52.238;13.438;2023-05-20T06:30:31;9.07;;;6.30;;
11473;SDS011;5793;52.238;13.438;2023-05-20T06:33:00;11.55;;;6.68;;
11473;SDS011;5793;52.238;13.438;2023-05-20T06:35:28;11.30;;;6.53;;
11473;SDS011;5793;52.238;13.438;2023-05-20T06:37:56;7.97;;;6.20;;
11473;SDS011;5793;52.238;13.438;2023-05-20T06:40:26;9.18;;;7.05;;
11473;SDS011;5793;52.238;13.438;2023-05-20T06:42:54;10.32;;;7.18;;
11473;SDS011;5793;52.238;13.438;2023-05-20T06:45:22;11.32;;;8.48;;
11473;SDS011;5793;52.238;13.438;2023-05-20T06:47:49;10.55;;;7.00;;
11473;SDS011;5793;52.238;13.438;2023-05-20T06:50:20;9.80;;;6.88;;
11473;SDS011;5793;52.238;13.438;2023-05-20T06:52:49;9.88;;;6.53;;
11473;SDS011;5793;52.238;13.438;2023-05-20T06:55:17;8.98;;;6.18;;
11473;SDS011;5793;52.238;13.438;2023-05-20T06:57:44;9.05;;;7.28;;
11473;SDS011;5793;52.238;13.438;2023-05-20T07:00:12;10.20;;;7.18;;
11473;SDS011;5793;52.238;13.438;2023-05-20T07:02:40;11.27;;;7.35;;
11473;SDS011;5793;52.238;13.438;2023-05-20T07:05:09;11.15;;;7.18;;
11473;SDS011;5793;52.238;13.438;2023-05-20T07:07:38;11.10;;;7.25;;
11473;SDS011;5793;52.238;13.438;2023-05-20T07:10:07;10.23;;;7.38;;
11473;SDS011;5793;52.238;13.438;2023-05-20T07:12:35;9.60;;;6.60;;
11473;SDS011;5793;52.238;13.438;2023-05-20T07:15:03;9.13;;;6.53;;
11473;SDS011;5793;52.238;13.438;2023-05-20T07:17:31;11.70;;;6.95;;
11473;SDS011;5793;52.238;13.438;2023-05-20T07:19:59;13.15;;;7.50;;
11473;SDS011;5793;52.238;13.438;2023-05-20T07:22:27;12.43;;;7.38;;
11473;SDS011;5793;52.238;13.438;2023-05-20T07:24:56;10.57;;;7.38;;
11473;SDS011;5793;52.238;13.438;2023-05-20T07:27:24;13.43;;;7.30;;
11473;SDS011;5793;52.238;13.438;2023-05-20T07:29:52;11.35;;;7.40;;
11473;SDS011;5793;52.238;13.438;2023-05-20T07:32:20;9.80;;;7.00;;
11473;SDS011;5793;52.238;13.438;2023-05-20T07:34:48;8.88;;;6.72;;
11473;SDS011;5793;52.238;13.438;2023-05-20T07:37:16;11.05;;;7.63;;
11473;SDS011;5793;52.238;13.438;2023-05-20T07:39:44;10.43;;;7.90;;
11473;SDS011;5793;52.238;13.438;2023-05-20T07:42:13;11.43;;;7.85;;
11473;SDS011;5793;52.238;13.438;2023-05-20T07:44:41;13.18;;;7.18;;
11473;SDS011;5793;52.238;13.438;2023-05-20T07:47:10;11.45;;;7.35;;
11473;SDS011;5793;52.238;13.438;2023-05-20T07:49:38;10.73;;;6.90;;
11473;SDS011;5793;52.238;13.438;2023-05-20T07:52:06;12.00;;;7.57;;
11473;SDS011;5793;52.238;13.438;2023-05-20T07:54:33;9.43;;;7.18;;
11473;SDS011;5793;52.238;13.438;2023-05-20T07:57:02;8.45;;;6.45;;
11473;SDS011;5793;52.238;13.438;2023-05-20T07:59:34;8.88;;;7.30;;
11473;SDS011;5793;52.238;13.438;2023-05-20T08:02:02;8.82;;;6.85;;
11473;SDS011;5793;52.238;13.438;2023-05-20T08:04:30;8.15;;;6.47;;
11473;SDS011;5793;52.238;13.438;2023-05-20T08:07:01;13.13;;;7.68;;
11473;SDS011;5793;52.238;13.438;2023-05-20T08:09:30;8.85;;;6.93;;
11473;SDS011;5793;52.238;13.438;2023-05-20T08:11:58;15.00;;;8.15;;
11473;SDS011;5793;52.238;13.438;2023-05-20T08:14:26;10.02;;;6.35;;
11473;SDS011;5793;52.238;13.438;2023-05-20T08:16:56;7.53;;;6.28;;
11473;SDS011;5793;52.238;13.438;2023-05-20T08:19:32;9.13;;;6.53;;
11473;SDS011;5793;52.238;13.438;2023-05-20T08:22:00;9.38;;;6.40;;
11473;SDS011;5793;52.238;13.438;2023-05-20T08:24:28;10.68;;;7.43;;
11473;SDS011;5793;52.238;13.438;2023-05-20T08:26:56;9.55;;;7.43;;
11473;SDS011;5793;52.238;13.438;2023-05-20T08:29:24;11.25;;;7.50;;
11473;SDS011;5793;52.238;13.438;2023-05-20T08:31:52;10.15;;;7.20;;
11473;SDS011;5793;52.238;13.438;2023-05-20T08:34:22;9.88;;;7.38;;
11473;SDS011;5793;52.238;13.438;2023-05-20T08:36:50;9.43;;;7.07;;
11473;SDS011;5793;52.238;13.438;2023-05-20T08:39:18;12.95;;;7.47;;
11473;SDS011;5793;52.238;13.438;2023-05-20T08:41:46;9.15;;;7.20;;
11473;SDS011;5793;52.238;13.438;2023-05-20T08:44:15;9.93;;;7.03;;
11473;SDS011;5793;52.238;13.438;2023-05-20T08:46:52;10.70;;;6.78;;
11473;SDS011;5793;52.238;13.438;2023-05-20T08:49:24;13.40;;;7.60;;
11473;SDS011;5793;52.238;13.438;2023-05-20T08:51:52;13.05;;;7.57;;
11473;SDS011;5793;52.238;13.438;2023-05-20T08:54:20;9.38;;;7.35;;
11473;SDS011;5793;52.238;13.438;2023-05-20T08:56:51;10.73;;;7.30;;
11473;SDS011;5793;52.238;13.438;2023-05-20T08:59:21;10.07;;;7.57;;
11473;SDS011;5793;52.238;13.438;2023-05-20T09:01:49;10.25;;;6.93;;
11473;SDS011;5793;52.238;13.438;2023-05-20T09:04:17;9.75;;;7.78;;
11473;SDS011;5793;52.238;13.438;2023-05-20T09:06:49;11.32;;;7.88;;
11473;SDS011;5793;52.238;13.438;2023-05-20T09:09:17;9.63;;;7.10;;
11473;SDS011;5793;52.238;13.438;2023-05-20T09:11:46;11.35;;;7.25;;
11473;SDS011;5793;52.238;13.438;2023-05-20T09:14:14;11.30;;;7.55;;
11473;SDS011;5793;52.238;13.438;2023-05-20T09:16:43;12.70;;;9.35;;
11473;SDS011;5793;52.238;13.438;2023-05-20T09:19:11;10.20;;;8.38;;
11473;SDS011;5793;52.238;13.438;2023-05-20T09:21:39;11.77;;;9.00;;
11473;SDS011;5793;52.238;13.438;2023-05-20T09:24:10;10.35;;;8.25;;
11473;SDS011;5793;52.238;13.438;2023-05-20T09:26:38;11.35;;;7.82;;
11473;SDS011;5793;52.238;13.438;2023-05-20T09:29:06;11.40;;;8.32;;
11473;SDS011;5793;52.238;13.438;2023-05-20T09:31:35;11.57;;;8.70;;
11473;SDS011;5793;52.238;13.438;2023-05-20T09:34:04;11.45;;;8.30;;
11473;SDS011;5793;52.238;13.438;2023-05-20T09:36:33;9.23;;;8.00;;
11473;SDS011;5793;52.238;13.438;2023-05-20T09:39:02;11.35;;;9.15;;
11473;SDS011;5793;52.238;13.438;2023-05-20T09:41:33;9.52;;;7.75;;
11473;SDS011;5793;52.238;13.438;2023-05-20T09:44:05;9.63;;;8.40;;
11473;SDS011;5793;52.238;13.438;2023-05-20T09:46:33;11.77;;;9.43;;
11473;SDS011;5793;52.238;13.438;2023-05-20T09:49:02;15.25;;;9.73;;
11473;SDS011;5793;52.238;13.438;2023-05-20T09:51:33;9.68;;;8.30;;
11473;SDS011;5793;52.238;13.438;2023-05-20T09:54:02;11.68;;;7.80;;
11473;SDS011;5793;52.238;13.438;2023-05-20T09:56:34;11.65;;;8.35;;
11473;SDS011;5793;52.238;13.438;2023-05-20T09:59:04;10.13;;;8.10;;
11473;SDS011;5793;52.238;13.438;2023-05-20T10:01:32;11.10;;;7.93;;
11473;SDS011;5793;52.238;13.438;2023-05-20T10:04:00;13.70;;;8.27;;
11473;SDS011;5793;52.238;13.438;2023-05-20T10:06:38;11.13;;;9.00;;
11473;SDS011;5793;52.238;13.438;2023-05-20T10:09:26;13.73;;;8.57;;
11473;SDS011;5793;52.238;13.438;2023-05-20T10:12:06;19.23;;;8.35;;
11473;SDS011;5793;52.238;13.438;2023-05-20T10:14:49;12.23;;;8.13;;
11473;SDS011;5793;52.238;13.438;2023-05-20T10:17:25;9.68;;;7.82;;
11473;SDS011;5793;52.238;13.438;2023-05-20T10:20:00;11.57;;;8.43;;
11473;SDS011;5793;52.238;13.438;2023-05-20T10:22:32;11.98;;;7.78;;
11473;SDS011;5793;52.238;13.438;2023-05-20T10:25:05;12.13;;;9.65;;
11473;SDS011;5793;52.238;13.438;2023-05-20T10:27:45;15.43;;;9.73;;
11473;SDS011;5793;52.238;13.438;2023-05-20T10:30:15;11.73;;;9.27;;
11473;SDS011;5793;52.238;13.438;2023-05-20T10:32:51;11.45;;;9.52;;
11473;SDS011;5793;52.238;13.438;2023-05-20T10:35:23;12.50;;;9.07;;
11473;SDS011;5793;52.238;13.438;2023-05-20T10:38:07;10.48;;;8.93;;
11473;SDS011;5793;52.238;13.438;2023-05-20T10:40:37;10.50;;;8.55;;
11473;SDS011;5793;52.238;13.438;2023-05-20T10:43:34;9.70;;;8.43;;
11473;SDS011;5793;52.238;13.438;2023-05-20T10:46:02;13.80;;;9.38;;
11473;SDS011;5793;52.238;13.438;2023-05-20T10:48:42;11.65;;;8.88;;
11473;SDS011;5793;52.238;13.438;2023-05-20T10:51:12;10.60;;;8.38;;
11473;SDS011;5793;52.238;13.438;2023-05-20T10:53:44;11.00;;;9.20;;
11473;SDS011;5793;52.238;13.438;2023-05-20T10:56:16;11.18;;;9.40;;
11473;SDS011;5793;52.238;13.438;2023-05-20T10:58:46;10.43;;;8.82;;
11473;SDS011;5793;52.238;13.438;2023-05-20T11:01:14;12.73;;;10.10;;
11473;SDS011;5793;52.238;13.438;2023-05-20T11:03:44;14.63;;;9.85;;
11473;SDS011;5793;52.238;13.438;2023-05-20T11:06:14;13.05;;;9.57;;
11473;SDS011;5793;52.238;13.438;2023-05-20T11:08:44;14.48;;;8.95;;
11473;SDS011;5793;52.238;13.438;2023-05-20T11:11:13;11.18;;;9.40;;
11473;SDS011;5793;52.238;13.438;2023-05-20T11:13:43;11.93;;;9.93;;
11473;SDS011;5793;52.238;13.438;2023-05-20T11:16:12;12.23;;;9.25;;
11473;SDS011;5793;52.238;13.438;2023-05-20T11:18:41;10.23;;;8.20;;
11473;SDS011;5793;52.238;13.438;2023-05-20T11:21:14;10.57;;;9.07;;
11473;SDS011;5793;52.238;13.438;2023-05-20T11:23:42;10.80;;;9.23;;
11473;SDS011;5793;52.238;13.438;2023-05-20T11:26:10;14.13;;;8.48;;
11473;SDS011;5793;52.238;13.438;2023-05-20T11:28:39;11.23;;;9.13;;
11473;SDS011;5793;52.238;13.438;2023-05-20T11:31:08;10.95;;;8.93;;
11473;SDS011;5793;52.238;13.438;2023-05-20T11:33:41;10.90;;;8.98;;
11473;SDS011;5793;52.238;13.438;2023-05-20T11:36:10;13.40;;;9.82;;
11473;SDS011;5793;52.238;13.438;2023-05-20T11:38:53;11.18;;;9.50;;
11473;SDS011;5793;52.238;13.438;2023-05-20T11:41:22;23.25;;;11.02;;
11473;SDS011;5793;52.238;13.438;2023-05-20T11:43:54;13.85;;;10.80;;
11473;SDS011;5793;52.238;13.438;2023-05-20T11:46:23;16.95;;;11.20;;
11473;SDS011;5793;52.238;13.438;2023-05-20T11:48:53;12.68;;;10.25;;
11473;SDS011;5793;52.238;13.438;2023-05-20T11:51:22;15.45;;;10.57;;
11473;SDS011;5793;52.238;13.438;2023-05-20T11:53:52;13.23;;;9.65;;
11473;SDS011;5793;52.238;13.438;2023-05-20T11:56:27;11.38;;;9.32;;
11473;SDS011;5793;52.238;13.438;2023-05-20T11:58:57;15.73;;;10.48;;
11473;SDS011;5793;52.238;13.438;2023-05-20T12:01:28;14.05;;;11.50;;
11473;SDS011;5793;52.238;13.438;2023-05-20T12:04:00;12.40;;;10.13;;
11473;SDS011;5793;52.238;13.438;2023-05-20T12:06:28;13.27;;;9.57;;
11473;SDS011;5793;52.238;13.438;2023-05-20T12:08:57;12.73;;;9.23;;
11473;SDS011;5793;52.238;13.438;2023-05-20T12:11:29;12.10;;;9.07;;
11473;SDS011;5793;52.238;13.438;2023-05-20T12:13:57;11.43;;;8.75;;
11473;SDS011;5793;52.238;13.438;2023-05-20T12:16:25;11.60;;;8.13;;
11473;SDS011;5793;52.238;13.438;2023-05-20T12:18:53;10.57;;;8.93;;
11473;SDS011;5793;52.238;13.438;2023-05-20T12:21:22;10.05;;;8.68;;
11473;SDS011;5793;52.238;13.438;2023-05-20T12:23:50;14.15;;;9.40;;
11473;SDS011;5793;52.238;13.438;2023-05-20T12:26:23;14.40;;;9.40;;
11473;SDS011;5793;52.238;13.438;2023-05-20T12:28:52;12.77;;;9.20;;
11473;SDS011;5793;52.238;13.438;2023-05-20T12:31:20;13.98;;;9.85;;
11473;SDS011;5793;52.238;13.438;2023-05-20T12:33:48;12.98;;;9.77;;
11473;SDS011;5793;52.238;13.438;2023-05-20T12:36:16;11.10;;;9.38;;
11473;SDS011;5793;52.238;13.438;2023-05-20T12:38:46;12.50;;;8.85;;
11473;SDS011;5793;52.238;13.438;2023-05-20T12:41:14;12.50;;;9.45;;
11473;SDS011;5793;52.238;13.438;2023-05-20T12:43:42;12.95;;;9.48;;
11473;SDS011;5793;52.238;13.438;2023-05-20T12:46:09;14.45;;;9.73;;
11473;SDS011;5793;52.238;13.438;2023-05-20T12:48:37;13.75;;;8.73;;
11473;SDS011;5793;52.238;13.438;2023-05-20T12:51:07;14.13;;;9.07;;
11473;SDS011;5793;52.238;13.438;2023-05-20T12:53:35;11.55;;;8.75;;
11473;SDS011;5793;52.238;13.438;2023-05-20T12:56:05;11.45;;;7.88;;
11473;SDS011;5793;52.238;13.438;2023-05-20T12:58:33;11.35;;;7.80;;
11473;SDS011;5793;52.238;13.438;2023-05-20T13:01:01;10.40;;;8.15;;
11473;SDS011;5793;52.238;13.438;2023-05-20T13:03:29;9.05;;;8.13;;
11473;SDS011;5793;52.238;13.438;2023-05-20T13:05:57;11.55;;;8.70;;
11473;SDS011;5793;52.238;13.438;2023-05-20T13:08:25;9.85;;;7.70;;
11473;SDS011;5793;52.238;13.438;2023-05-20T13:10:54;9.88;;;8.00;;
11473;SDS011;5793;52.238;13.438;2023-05-20T13:13:23;10.13;;;8.27;;
11473;SDS011;5793;52.238;13.438;2023-05-20T13:15:51;7.45;;;6.70;;
11473;SDS011;5793;52.238;13.438;2023-05-20T13:18:20;10.07;;;7.43;;
11473;SDS011;5793;52.238;13.438;2023-05-20T13:20:48;9.95;;;7.28;;
11473;SDS011;5793;52.238;13.438;2023-05-20T13:23:17;11.63;;;7.53;;
11473;SDS011;5793;52.238;13.438;2023-05-20T13:25:45;8.15;;;6.88;;
11473;SDS011;5793;52.238;13.438;2023-05-20T13:28:13;12.82;;;7.53;;
11473;SDS011;5793;52.238;13.438;2023-05-20T13:30:45;9.98;;;7.18;;
11473;SDS011;5793;52.238;13.438;2023-05-20T13:33:13;11.43;;;7.32;;
11473;SDS011;5793;52.238;13.438;2023-05-20T13:35:41;10.30;;;7.18;;
11473;SDS011;5793;52.238;13.438;2023-05-20T13:38:09;8.13;;;7.10;;
11473;SDS011;5793;52.238;13.438;2023-05-20T13:40:37;8.75;;;6.85;;
11473;SDS011;5793;52.238;13.438;2023-05-20T13:43:05;8.63;;;6.82;;
11473;SDS011;5793;52.238;13.438;2023-05-20T13:45:33;7.72;;;6.68;;
11473;SDS011;5793;52.238;13.438;2023-05-20T13:48:02;7.97;;;6.72;;
11473;SDS011;5793;52.238;13.438;2023-05-20T13:50:31;8.65;;;7.43;;
11473;SDS011;5793;52.238;13.438;2023-05-20T13:52:59;6.97;;;6.28;;
11473;SDS011;5793;52.238;13.438;2023-05-20T13:55:27;13.73;;;7.60;;
11473;SDS011;5793;52.238;13.438;2023-05-20T13:57:54;9.10;;;6.93;;
11473;SDS011;5793;52.238;13.438;2023-05-20T14:00:22;8.35;;;7.20;;
11473;SDS011;5793;52.238;13.438;2023-05-20T14:02:51;9.50;;;6.82;;
11473;SDS011;5793;52.238;13.438;2023-05-20T14:05:21;7.57;;;6.57;;
11473;SDS011;5793;52.238;13.438;2023-05-20T14:07:49;8.57;;;7.15;;
11473;SDS011;5793;52.238;13.438;2023-05-20T14:10:17;7.55;;;6.80;;
11473;SDS011;5793;52.238;13.438;2023-05-20T14:12:45;10.85;;;7.18;;
11473;SDS011;5793;52.238;13.438;2023-05-20T14:15:13;9.95;;;6.90;;
11473;SDS011;5793;52.238;13.438;2023-05-20T14:17:41;8.38;;;6.93;;
11473;SDS011;5793;52.238;13.438;2023-05-20T14:20:10;8.63;;;6.93;;
11473;SDS011;5793;52.238;13.438;2023-05-20T14:22:39;8.35;;;7.20;;
11473;SDS011;5793;52.238;13.438;2023-05-20T14:25:07;9.15;;;7.38;;
11473;SDS011;5793;52.238;13.438;2023-05-20T14:27:36;7.82;;;6.63;;
11473;SDS011;5793;52.238;13.438;2023-05-20T14:30:04;7.90;;;7.10;;
11473;SDS011;5793;52.238;13.438;2023-05-20T14:32:33;9.05;;;7.05;;
11473;SDS011;5793;52.238;13.438;2023-05-20T14:35:01;8.63;;;6.97;;
11473;SDS011;5793;52.238;13.438;2023-05-20T14:37:29;10.88;;;6.72;;
11473;SDS011;5793;52.238;13.438;2023-05-20T14:39:59;10.55;;;7.63;;
11473;SDS011;5793;52.238;13.438;2023-05-20T14:42:27;11.57;;;7.25;;
11473;SDS011;5793;52.238;13.438;2023-05-20T14:44:55;9.18;;;6.72;;
11473;SDS011;5793;52.238;13.438;2023-05-20T14:47:23;7.57;;;6.88;;
11473;SDS011;5793;52.238;13.438;2023-05-20T14:49:52;8.98;;;6.80;;
11473;SDS011;5793;52.238;13.438;2023-05-20T14:52:20;8.07;;;6.50;;